Time;durP1;ratioP1;P1;durP2;ratioP2;P2;SDS_P1;SDS_P2;PMS_P1;PMS_P2;Temp;Humidity;BMP_temperature;BMP_pressure;BME280_temperature;BME280_humidity;BME280_pressure;Samples;Min_cycle;Max_cycle;Signal;HPM_P1;HPM_P2
2022/05/20 00:00:46;;;;;;;10.43;6.18;;;;;;;15.13;100.00;93726.13;2090124;28;20029;-82
2022/05/20 00:01:48;;;;;;;7.00;5.43;;;;;;;15.16;100.00;93725.28;2090441;28;20025;-82
2022/05/20 00:02:50;;;;;;;9.98;6.13;;;;;;;15.11;100.00;93726.56;2090256;28;20477;-82
2022/05/20 00:03:51;;;;;;;9.52;5.70;;;;;;;15.13;100.00;93723.44;2090188;28;20045;-82
2022/05/20 00:04:52;;;;;;;10.70;6.07;;;;;;;15.11;100.00;93729.25;2081768;28;20049;-82
2022/05/20 00:05:54;;;;;;;10.77;5.90;;;;;;;15.13;100.00;93726.88;2090343;28;20094;-82
2022/05/20 00:06:54;;;;;;;9.68;6.03;;;;;;;15.14;100.00;93725.69;2090119;28;20037;-82
2022/05/20 00:07:55;;;;;;;6.07;5.55;;;;;;;15.20;100.00;93728.63;2081873;28;20029;-82
2022/05/20 00:08:56;;;;;;;9.05;5.63;;;;;;;15.14;100.00;93727.63;2090348;28;20029;-82
2022/05/20 00:09:58;;;;;;;7.00;5.45;;;;;;;15.14;100.00;93728.38;2089463;28;20021;-82
2022/05/20 00:10:59;;;;;;;6.97;5.28;;;;;;;15.10;100.00;93725.03;2082039;28;20018;-82
2022/05/20 00:12:00;;;;;;;8.63;5.55;;;;;;;15.17;100.00;93721.41;2090190;28;20055;-82
2022/05/20 00:13:02;;;;;;;7.55;5.90;;;;;;;15.14;100.00;93722.25;2085781;28;20506;-82
2022/05/20 00:14:05;;;;;;;6.43;5.80;;;;;;;15.19;100.00;93725.19;2073652;28;20390;-82
2022/05/20 00:15:08;;;;;;;8.63;5.50;;;;;;;15.11;100.00;93726.56;2065961;28;20022;-82
2022/05/20 00:16:09;;;;;;;7.90;5.63;;;;;;;15.06;100.00;93727.09;2074363;28;20363;-82
2022/05/20 00:17:10;;;;;;;6.63;5.40;;;;;;;15.06;100.00;93722.47;2073724;28;20060;-82
2022/05/20 00:18:12;;;;;;;8.32;5.35;;;;;;;15.15;100.00;93718.41;2082067;28;20604;-82
2022/05/20 00:19:14;;;;;;;7.75;5.80;;;;;;;15.06;100.00;93719.03;2091460;28;20029;-83
2022/05/20 00:20:18;;;;;;;6.20;5.60;;;;;;;15.04;100.00;93719.44;2078501;28;20110;-83
2022/05/20 00:21:19;;;;;;;6.85;6.03;;;;;;;15.05;100.00;93726.34;2082346;28;20025;-82
2022/05/20 00:22:20;;;;;;;8.98;5.78;;;;;;;15.02;100.00;93716.44;2089960;28;20060;-82
2022/05/20 00:23:21;;;;;;;7.63;5.55;;;;;;;14.90;100.00;93711.78;2081875;28;20021;-82
2022/05/20 00:24:22;;;;;;;8.63;5.60;;;;;;;14.89;100.00;93712.22;2073726;28;20029;-83
2022/05/20 00:25:46;;;;;;;9.07;5.72;;;;;;;14.88;100.00;93705.31;2075895;28;20022;-83
2022/05/20 00:26:48;;;;;;;6.22;5.40;;;;;;;14.90;100.00;93705.66;2076551;28;20477;-82
2022/05/20 00:27:49;;;;;;;5.80;5.07;;;;;;;14.89;100.00;93712.22;2065632;28;20023;-82
2022/05/20 00:28:51;;;;;;;7.43;5.68;;;;;;;14.86;100.00;93703.06;2072151;28;20177;-82
2022/05/20 00:29:53;;;;;;;6.20;5.43;;;;;;;14.82;100.00;93708.53;2090386;28;20124;-83
2022/05/20 00:31:00;;;;;;;9.05;5.40;;;;;;;14.82;100.00;93705.09;2084990;28;20032;-82
2022/05/20 00:32:01;;;;;;;9.43;6.03;;;;;;;14.84;100.00;93706.19;2067200;28;20027;-82
2022/05/20 00:33:02;;;;;;;7.32;5.30;;;;;;;14.82;100.00;93702.41;2065448;28;20022;-82
2022/05/20 00:34:04;;;;;;;7.35;5.40;;;;;;;14.88;100.00;93710.69;2065585;28;20471;-82
2022/05/20 00:35:05;;;;;;;9.25;5.60;;;;;;;14.77;100.00;93706.38;2073780;28;20492;-82
2022/05/20 00:36:07;;;;;;;8.10;5.60;;;;;;;14.73;100.00;93704.97;2093815;28;20024;-82
2022/05/20 00:37:08;;;;;;;5.80;5.03;;;;;;;14.74;100.00;93706.47;2081672;28;20099;-82
2022/05/20 00:38:09;;;;;;;6.38;5.78;;;;;;;14.65;100.00;93703.66;2073441;28;20033;-82
2022/05/20 00:39:10;;;;;;;6.72;5.25;;;;;;;14.64;100.00;93708.28;2087693;28;20112;-82
2022/05/20 00:40:15;;;;;;;6.78;5.65;;;;;;;14.67;100.00;93704.75;2073463;28;20141;-82
2022/05/20 00:41:18;;;;;;;9.63;5.32;;;;;;;14.64;100.00;93707.53;2070823;28;20028;-82
2022/05/20 00:42:19;;;;;;;9.05;5.75;;;;;;;14.63;100.00;93703.34;2081596;28;20061;-82
2022/05/20 00:43:28;;;;;;;8.43;5.40;;;;;;;14.53;100.00;93713.19;2073542;28;20108;-83
2022/05/20 00:44:28;;;;;;;7.25;5.07;;;;;;;14.61;100.00;93707.19;2081563;28;20470;-82
2022/05/20 00:45:29;;;;;;;8.73;5.90;;;;;;;14.54;100.00;93709.34;2065423;28;20030;-83
2022/05/20 00:46:31;;;;;;;6.32;5.15;;;;;;;14.55;100.00;93705.47;2081381;28;20061;-82
2022/05/20 00:47:33;;;;;;;6.00;5.28;;;;;;;14.47;100.00;93707.56;2081507;28;20120;-82
2022/05/20 00:48:35;;;;;;;6.00;5.32;;;;;;;14.43;100.00;93709.59;2065860;28;20835;-82
2022/05/20 00:49:36;;;;;;;6.72;4.90;;;;;;;14.42;100.00;93705.38;2081738;28;20037;-82
2022/05/20 00:50:42;;;;;;;9.63;5.55;;;;;;;14.41;100.00;93700.44;2089734;28;20032;-82
2022/05/20 00:51:48;;;;;;;7.70;5.53;;;;;;;14.34;100.00;93702.13;2089048;28;20025;-82
2022/05/20 00:52:50;;;;;;;6.35;5.55;;;;;;;14.47;100.00;93693.34;2082964;28;20750;-81
2022/05/20 00:54:01;;;;;;;6.57;5.28;;;;;;;14.40;100.00;93691.63;2089748;28;20503;-82
2022/05/20 00:55:10;;;;;;;8.57;5.25;;;;;;;14.41;100.00;93690.44;2075010;28;20030;-81
2022/05/20 00:56:17;;;;;;;7.10;5.57;;;;;;;14.36;100.00;93693.66;2067242;28;20026;-82
2022/05/20 00:57:32;;;;;;;7.88;5.93;;;;;;;14.36;100.00;93696.34;2073883;28;20017;-82
2022/05/20 00:58:34;;;;;;;10.18;5.53;;;;;;;14.27;100.00;93693.50;2085702;28;20022;-82
2022/05/20 00:59:39;;;;;;;5.85;5.28;;;;;;;14.20;100.00;93697.13;2089657;28;20021;-82
2022/05/20 01:00:44;;;;;;;9.48;5.20;;;;;;;14.15;100.00;93694.97;2082046;28;20025;-82
2022/05/20 01:01:49;;;;;;;9.02;5.63;;;;;;;14.10;100.00;93688.19;2091259;28;20025;-82
2022/05/20 01:02:54;;;;;;;10.02;5.45;;;;;;;14.14;100.00;93690.78;2097926;28;20039;-82
2022/05/20 01:03:56;;;;;;;7.22;5.95;;;;;;;14.14;100.00;93690.78;2081916;28;20021;-83
2022/05/20 01:05:03;;;;;;;7.20;5.32;;;;;;;14.25;100.00;93685.09;2089929;28;20099;-82
2022/05/20 01:06:05;;;;;;;8.40;5.22;;;;;;;14.18;100.00;93685.28;2097775;28;20385;-82
2022/05/20 01:07:08;;;;;;;7.35;5.95;;;;;;;14.15;100.00;93683.47;2086943;28;21109;-82
2022/05/20 01:08:13;;;;;;;6.47;5.40;;;;;;;14.14;100.00;93688.09;2082076;28;20028;-82
2022/05/20 01:09:14;;;;;;;10.18;5.63;;;;;;;14.04;100.00;93686.41;2089726;28;20020;-82
2022/05/20 01:10:16;;;;;;;9.55;6.03;;;;;;;14.07;100.00;93685.56;2077181;28;20359;-82
2022/05/20 01:11:16;;;;;;;10.00;5.22;;;;;;;14.08;100.00;93684.38;2065291;28;20065;-82
2022/05/20 01:12:17;;;;;;;7.47;5.40;;;;;;;13.96;100.00;93677.00;2073298;28;20025;-82
2022/05/20 01:13:20;;;;;;;6.82;5.50;;;;;;;13.97;100.00;93684.69;2085483;28;20053;-82
2022/05/20 01:14:25;;;;;;;10.10;5.93;;;;;;;13.86;100.00;93678.81;2081502;28;20056;-81
2022/05/20 01:15:27;;;;;;;5.70;5.10;;;;;;;13.74;100.00;93676.78;2090253;28;20021;-82
2022/05/20 01:16:29;;;;;;;10.32;5.75;;;;;;;13.87;100.00;93685.69;2089438;28;20028;-82
2022/05/20 01:17:30;;;;;;;7.70;5.25;;;;;;;13.91;100.00;93678.28;2076191;28;20121;-82
2022/05/20 01:18:37;;;;;;;6.50;5.43;;;;;;;13.84;100.00;93681.91;2081405;28;20549;-82
2022/05/20 01:19:47;;;;;;;6.63;5.30;;;;;;;13.75;100.00;93675.66;2098749;28;20032;-82
2022/05/20 01:20:51;;;;;;;8.20;5.15;;;;;;;13.80;100.00;93681.25;2097735;28;20489;-82
2022/05/20 01:21:51;;;;;;;10.07;5.55;;;;;;;13.74;100.00;93679.47;2089923;28;20811;-82
2022/05/20 01:23:01;;;;;;;7.25;5.63;;;;;;;13.65;100.00;93679.31;2089615;28;20033;-82
2022/05/20 01:24:03;;;;;;;7.50;5.50;;;;;;;13.58;100.00;93688.31;2082585;28;20063;-82
2022/05/20 01:25:06;;;;;;;5.95;5.45;;;;;;;13.75;100.00;93683.69;2081658;28;20029;-82
2022/05/20 01:26:07;;;;;;;8.93;5.95;;;;;;;13.71;100.00;93675.72;2089205;28;20107;-82
2022/05/20 01:27:08;;;;;;;7.63;5.22;;;;;;;13.74;100.00;93682.16;2081245;28;20470;-82
2022/05/20 01:28:11;;;;;;;8.50;5.30;;;;;;;13.70;100.00;93676.91;2094282;28;20029;-82
2022/05/20 01:29:12;;;;;;;7.55;5.95;;;;;;;13.73;100.00;93686.03;2089781;28;20025;-82
2022/05/20 01:30:21;;;;;;;7.38;5.82;;;;;;;13.69;100.00;93680.00;2097883;28;20028;-82
2022/05/20 01:31:23;;;;;;;8.43;5.90;;;;;;;13.63;100.00;93685.13;2097609;28;20044;-82
2022/05/20 01:32:25;;;;;;;7.38;5.50;;;;;;;13.59;100.00;93687.91;2097976;28;20057;-82
2022/05/20 01:33:35;;;;;;;7.82;5.78;;;;;;;13.63;100.00;93676.31;2089303;28;20033;-82
2022/05/20 01:34:38;;;;;;;8.52;6.10;;;;;;;13.62;100.00;93674.81;2083825;28;20021;-82
2022/05/20 01:35:42;;;;;;;8.10;6.13;;;;;;;13.60;100.00;93683.28;2089594;28;20382;-81
2022/05/20 01:36:43;;;;;;;6.50;5.82;;;;;;;13.58;100.00;93674.91;2090264;28;20021;-82
2022/05/20 01:37:44;;;;;;;8.02;5.80;;;;;;;13.60;100.00;93678.66;2089349;28;20689;-82
2022/05/20 01:38:46;;;;;;;6.80;5.88;;;;;;;13.65;100.00;93682.00;2074619;28;20032;-82
2022/05/20 01:39:47;;;;;;;7.88;5.90;;;;;;;13.59;100.00;93679.84;2073322;28;20550;-82
2022/05/20 01:40:53;;;;;;;8.18;5.05;;;;;;;13.57;100.00;93684.88;2072915;28;20077;-82
2022/05/20 01:42:22;;;;;;;8.20;5.88;;;;;;;13.52;100.00;93677.34;2082565;28;20029;-83
2022/05/20 01:43:41;;;;;;;6.90;5.32;;;;;;;13.50;100.00;93679.69;2084862;28;20110;-82
2022/05/20 01:45:09;;;;;;;7.63;6.30;;;;;;;13.72;100.00;93687.97;2086304;28;20437;-82
2022/05/20 01:46:24;;;;;;;5.65;5.07;;;;;;;13.63;100.00;93684.38;2092867;28;20037;-83
2022/05/20 01:47:36;;;;;;;14.02;6.20;;;;;;;13.61;100.00;93676.75;2091311;28;20028;-82
2022/05/20 01:48:58;;;;;;;10.32;6.32;;;;;;;13.65;100.00;93684.69;2084682;28;20017;-82
2022/05/20 01:50:18;;;;;;;8.27;5.60;;;;;;;13.62;100.00;93682.88;2094786;28;20099;-82
2022/05/20 01:51:25;;;;;;;6.07;5.35;;;;;;;13.54;100.00;93683.03;2089455;28;20115;-82
2022/05/20 01:52:36;;;;;;;9.02;5.88;;;;;;;13.56;100.00;93686.06;2082940;28;20470;-82
2022/05/20 01:53:47;;;;;;;8.20;6.22;;;;;;;13.62;100.00;93688.25;2082334;28;20032;-82
2022/05/20 01:55:09;;;;;;;9.23;5.72;;;;;;;13.56;100.00;93682.59;2075721;28;20032;-82
2022/05/20 01:56:15;;;;;;;6.40;5.68;;;;;;;13.48;100.00;93687.41;2078061;28;20025;-82
2022/05/20 01:57:46;;;;;;;7.30;6.07;;;;;;;13.44;100.00;93684.06;2081799;28;20017;-82
2022/05/20 01:58:56;;;;;;;8.60;5.85;;;;;;;13.42;100.00;93681.00;2085166;28;20031;-82
2022/05/20 02:00:19;;;;;;;8.32;6.00;;;;;;;13.55;100.00;93678.41;2091923;28;20872;-82
2022/05/20 02:01:46;;;;;;;9.32;5.78;;;;;;;13.51;100.00;93681.19;2097469;28;20112;-82
2022/05/20 02:03:00;;;;;;;7.10;6.35;;;;;;;13.41;100.00;93679.50;2084627;28;20036;-82
2022/05/20 02:04:07;;;;;;;9.25;5.60;;;;;;;13.37;100.00;93684.22;2088530;28;20017;-82
2022/05/20 02:05:22;;;;;;;7.47;6.10;;;;;;;13.43;100.00;93679.84;2089382;28;20416;-82
2022/05/20 02:06:43;;;;;;;6.40;5.80;;;;;;;13.41;100.00;93682.19;2076732;28;20026;-82
2022/05/20 02:07:49;;;;;;;9.75;6.05;;;;;;;13.38;100.00;93676.91;2087203;28;20435;-82
2022/05/20 02:09:12;;;;;;;6.68;5.85;;;;;;;13.28;100.00;93676.72;2097555;28;20051;-82
2022/05/20 02:10:22;;;;;;;8.63;6.07;;;;;;;13.34;100.00;93676.97;2097555;28;20125;-82
2022/05/20 02:13:21;;;;;;;8.38;6.95;;;;;;;13.40;100.00;93669.19;2147892;27;20172;-82
2022/05/20 02:14:46;;;;;;;7.90;6.63;;;;;;;13.41;100.00;93668.00;2121427;28;20043;-82
2022/05/20 02:15:59;;;;;;;8.63;6.20;;;;;;;13.39;100.00;93667.66;2111417;28;20132;-82
2022/05/20 02:17:00;;;;;;;7.25;5.72;;;;;;;13.32;100.00;93665.91;2106366;28;20035;-82
2022/05/20 02:18:05;;;;;;;7.55;5.90;;;;;;;13.40;100.00;93667.25;2100259;28;20020;-82
2022/05/20 02:19:17;;;;;;;9.27;6.43;;;;;;;13.33;100.00;93664.75;2097509;28;20033;-82
2022/05/20 02:20:29;;;;;;;6.72;6.03;;;;;;;13.43;100.00;93669.09;2099240;28;20062;-82
2022/05/20 02:21:36;;;;;;;8.32;6.50;;;;;;;13.34;100.00;93664.34;2106063;28;20020;-82
2022/05/20 02:22:43;;;;;;;9.63;6.40;;;;;;;13.31;100.00;93661.72;2097699;28;20024;-82
2022/05/20 02:23:53;;;;;;;10.48;6.85;;;;;;;13.19;100.00;93659.69;2106174;28;20017;-82
2022/05/20 02:24:56;;;;;;;9.30;5.97;;;;;;;13.20;100.00;93666.56;2105525;28;20028;-82
2022/05/20 02:26:03;;;;;;;7.43;6.68;;;;;;;13.21;100.00;93662.69;2113586;27;20034;-82
2022/05/20 02:27:08;;;;;;;13.07;6.55;;;;;;;13.21;100.00;93662.69;2121456;28;20395;-82
2022/05/20 02:28:17;;;;;;;6.95;6.32;;;;;;;13.33;100.00;93660.13;2105004;28;20036;-83
2022/05/20 02:29:31;;;;;;;7.18;6.43;;;;;;;13.29;100.00;93658.69;2107062;28;20023;-83
2022/05/20 02:30:34;;;;;;;7.75;6.72;;;;;;;13.31;100.00;93659.78;2108564;28;20073;-83
2022/05/20 02:31:42;;;;;;;8.07;6.35;;;;;;;13.28;100.00;93657.94;2096731;28;20033;-82
2022/05/20 02:32:50;;;;;;;7.82;7.03;;;;;;;13.26;100.00;93657.63;2098150;28;20025;-83
2022/05/20 02:33:52;;;;;;;9.80;6.35;;;;;;;13.16;100.00;93658.56;2115540;28;20027;-83
2022/05/20 02:34:54;;;;;;;9.90;6.93;;;;;;;13.14;100.00;93660.94;2104578;28;20109;-82
2022/05/20 02:36:18;;;;;;;9.55;7.30;;;;;;;13.10;100.00;93668.31;2120104;28;20026;-82
2022/05/20 02:37:26;;;;;;;10.82;7.18;;;;;;;13.14;100.00;93652.13;2102194;28;20480;-82
2022/05/20 02:38:27;;;;;;;8.02;6.85;;;;;;;13.22;100.00;93659.63;2097960;28;20029;-83
2022/05/20 02:39:28;;;;;;;9.82;7.00;;;;;;;13.21;100.00;93662.69;2115687;28;20027;-82
2022/05/20 02:40:29;;;;;;;8.30;7.28;;;;;;;13.19;100.00;93652.38;2112747;28;20394;-83
2022/05/20 02:41:30;;;;;;;8.70;6.47;;;;;;;13.07;100.00;93653.78;2095750;28;20059;-82
2022/05/20 02:42:31;;;;;;;7.70;6.45;;;;;;;13.06;100.00;93657.66;2096230;28;20056;-83
2022/05/20 02:43:32;;;;;;;8.52;7.05;;;;;;;13.07;100.00;93656.47;2104369;28;20110;-82
2022/05/20 02:44:34;;;;;;;7.03;6.28;;;;;;;13.05;100.00;93656.13;2112949;28;20472;-82
2022/05/20 02:45:37;;;;;;;8.30;6.55;;;;;;;13.14;100.00;93647.50;2104360;28;20032;-81
2022/05/20 02:46:40;;;;;;;7.32;6.72;;;;;;;13.04;100.00;93656.56;2097026;28;20025;-82
2022/05/20 02:47:41;;;;;;;9.95;7.03;;;;;;;13.05;100.00;93652.69;2113183;28;20031;-82
2022/05/20 02:48:42;;;;;;;8.45;6.97;;;;;;;13.02;100.00;93656.97;2104253;28;20115;-82
2022/05/20 02:49:43;;;;;;;8.85;7.05;;;;;;;13.23;100.00;93645.03;2104335;28;20031;-82
2022/05/20 02:50:45;;;;;;;8.38;6.50;;;;;;;13.20;100.00;93653.88;2104142;28;20032;-83
2022/05/20 02:51:46;;;;;;;8.88;6.80;;;;;;;13.17;100.00;93645.91;2104300;28;20024;-82
2022/05/20 02:52:47;;;;;;;10.45;7.70;;;;;;;13.07;100.00;93647.66;2104239;28;20468;-83
2022/05/20 02:53:47;;;;;;;10.32;6.93;;;;;;;12.99;100.00;93646.31;2112862;28;20379;-83
2022/05/20 02:54:48;;;;;;;10.20;6.63;;;;;;;13.23;100.00;93647.72;2104268;28;20436;-82
2022/05/20 02:55:50;;;;;;;10.52;7.35;;;;;;;13.12;100.00;93649.84;2095987;28;20027;-82
2022/05/20 02:56:51;;;;;;;9.65;6.75;;;;;;;13.02;100.00;93643.53;2100460;28;20054;-81
2022/05/20 02:57:52;;;;;;;7.97;6.75;;;;;;;13.05;100.00;93644.66;2096042;28;20032;-82
2022/05/20 03:04:30;;;;;;;8.27;6.32;;;;;;;13.07;100.00;93656.47;2106761;28;20029;-82
2022/05/20 03:05:31;;;;;;;8.80;6.47;;;;;;;13.03;100.00;93663.09;2095889;28;20021;-82
2022/05/20 03:06:32;;;;;;;7.75;6.40;;;;;;;12.95;100.00;93656.34;2095872;28;20032;-82
2022/05/20 03:07:33;;;;;;;7.53;6.40;;;;;;;12.93;100.00;93656.03;2108747;28;20024;-83
2022/05/20 03:08:34;;;;;;;8.95;6.18;;;;;;;12.97;100.00;93657.47;2104221;28;20058;-83
2022/05/20 03:09:36;;;;;;;9.65;7.00;;;;;;;13.07;100.00;93656.47;2104123;28;20021;-82
2022/05/20 03:10:38;;;;;;;11.93;6.47;;;;;;;12.91;100.00;93664.50;2095898;28;20031;-82
2022/05/20 03:11:40;;;;;;;9.70;6.53;;;;;;;12.87;100.00;93655.03;2096227;28;20020;-83
2022/05/20 03:12:42;;;;;;;9.27;6.88;;;;;;;12.87;100.00;93655.03;2099989;28;20064;-82
2022/05/20 03:13:43;;;;;;;7.60;6.53;;;;;;;12.85;100.00;93653.50;2104135;28;20369;-82
2022/05/20 03:14:45;;;;;;;8.30;7.22;;;;;;;12.81;100.00;93663.56;2104068;28;20024;-82
2022/05/20 03:15:46;;;;;;;10.02;6.65;;;;;;;12.80;100.00;93659.34;2095945;28;20025;-81
2022/05/20 03:16:47;;;;;;;8.70;6.50;;;;;;;12.79;100.00;93660.53;2104196;28;20810;-82
2022/05/20 03:17:48;;;;;;;8.38;6.55;;;;;;;12.82;100.00;93670.44;2093621;28;20024;-83
2022/05/20 03:18:49;;;;;;;7.53;6.00;;;;;;;12.84;100.00;93656.59;2095639;28;20468;-82
2022/05/20 03:19:50;;;;;;;8.07;6.13;;;;;;;12.78;100.00;93658.28;2095563;28;20058;-82
2022/05/20 03:20:51;;;;;;;9.65;6.40;;;;;;;12.79;100.00;93663.22;2095661;28;20469;-82
2022/05/20 03:21:52;;;;;;;10.23;6.65;;;;;;;12.77;100.00;93662.88;2095669;28;20031;-82
2022/05/20 03:22:53;;;;;;;9.25;6.53;;;;;;;12.80;100.00;93654.00;2107159;28;20028;-83
2022/05/20 03:23:54;;;;;;;8.57;6.55;;;;;;;12.71;100.00;93656.50;2101606;28;20067;-82
2022/05/20 03:24:55;;;;;;;11.82;6.35;;;;;;;12.62;100.00;93645.56;2097182;28;20480;-81
2022/05/20 03:25:56;;;;;;;7.35;6.65;;;;;;;12.58;100.00;93640.28;2106708;28;20048;-81
2022/05/20 03:26:58;;;;;;;9.38;6.82;;;;;;;12.60;100.00;93648.69;2106734;28;20024;-82
2022/05/20 03:27:59;;;;;;;12.35;7.50;;;;;;;12.64;100.00;93645.91;2102352;28;20028;-82
2022/05/20 03:29:02;;;;;;;8.57;6.18;;;;;;;12.59;100.00;93651.75;2098427;28;20473;-82
2022/05/20 03:30:07;;;;;;;6.47;5.82;;;;;;;12.58;100.00;93651.00;2098655;28;20020;-82
2022/05/20 03:31:09;;;;;;;9.00;6.80;;;;;;;12.53;100.00;93645.38;2099542;28;20073;-82
2022/05/20 03:32:11;;;;;;;10.35;6.97;;;;;;;12.56;100.00;93650.69;2106976;28;20494;-82
2022/05/20 03:33:12;;;;;;;9.27;6.63;;;;;;;12.55;100.00;93646.47;2098349;28;20436;-82
2022/05/20 03:34:15;;;;;;;7.15;6.43;;;;;;;12.49;100.00;93647.38;2088553;28;20029;-82
2022/05/20 03:35:16;;;;;;;9.40;6.63;;;;;;;12.55;100.00;93648.41;2082342;28;20025;-83
2022/05/20 03:36:17;;;;;;;8.73;6.30;;;;;;;12.50;100.00;93643.53;2086027;28;20036;-82
2022/05/20 03:37:20;;;;;;;8.88;6.65;;;;;;;12.51;100.00;93640.44;2082007;28;20501;-82
2022/05/20 03:38:21;;;;;;;8.65;6.70;;;;;;;12.55;100.00;93648.41;2092816;28;20183;-83
2022/05/20 03:39:23;;;;;;;10.90;8.18;;;;;;;12.48;100.00;93648.56;2090138;28;20087;-83
2022/05/20 03:40:24;;;;;;;8.73;7.43;;;;;;;12.44;100.00;93645.94;2098740;28;20024;-83
2022/05/20 03:41:33;;;;;;;9.60;7.68;;;;;;;12.48;100.00;93645.88;2101998;28;20027;-83
2022/05/20 03:42:34;;;;;;;8.05;6.88;;;;;;;12.46;100.00;93646.28;2099438;28;20024;-83
2022/05/20 03:43:35;;;;;;;8.00;7.20;;;;;;;12.38;100.00;93654.88;2098471;28;20397;-82
2022/05/20 03:44:36;;;;;;;8.85;6.50;;;;;;;12.35;100.00;93651.09;2098250;28;20024;-82
2022/05/20 03:45:42;;;;;;;6.93;6.25;;;;;;;12.35;100.00;93649.19;2090091;28;20033;-82
2022/05/20 03:46:46;;;;;;;8.38;6.70;;;;;;;12.34;100.00;93649.59;2102687;28;20051;-83
2022/05/20 03:47:47;;;;;;;7.57;6.70;;;;;;;12.32;100.00;93644.63;2100424;28;20826;-82
2022/05/20 03:48:48;;;;;;;9.68;6.68;;;;;;;12.31;100.00;93648.50;2106903;27;20099;-82
2022/05/20 03:49:49;;;;;;;10.07;6.85;;;;;;;12.24;100.00;93653.97;2104044;28;20054;-82
2022/05/20 03:50:50;;;;;;;10.00;6.57;;;;;;;12.28;100.00;93648.56;2081953;28;20528;-81
2022/05/20 03:51:53;;;;;;;8.48;6.55;;;;;;;12.35;100.00;93649.19;2105223;28;20110;-81
2022/05/20 03:52:54;;;;;;;8.85;6.28;;;;;;;12.21;100.00;93646.78;2114977;28;20048;-82
2022/05/20 03:53:55;;;;;;;9.82;6.55;;;;;;;12.37;100.00;93648.75;2098377;28;20560;-82
2022/05/20 03:54:56;;;;;;;7.40;6.47;;;;;;;12.40;100.00;93658.66;2098208;28;20016;-82
2022/05/20 03:55:58;;;;;;;7.82;6.75;;;;;;;12.45;100.00;93647.44;2098311;28;20119;-82
2022/05/20 03:57:00;;;;;;;9.55;6.93;;;;;;;12.39;100.00;93645.69;2098342;28;20054;-82
2022/05/20 03:58:02;;;;;;;9.45;5.82;;;;;;;12.33;100.00;93648.81;2107148;28;20384;-82
2022/05/20 03:59:03;;;;;;;8.60;6.60;;;;;;;12.28;100.00;93643.94;2098167;28;20083;-82
2022/05/20 04:00:06;;;;;;;7.20;6.60;;;;;;;12.14;100.00;93648.84;2090186;28;20104;-82
2022/05/20 04:02:30;;;;;;;8.05;5.88;;;;;;;12.29;100.00;93653.53;2101197;28;20066;-82
2022/05/20 04:03:32;;;;;;;5.95;5.43;;;;;;;12.22;100.00;93648.28;2089955;28;20027;-82
2022/05/20 04:04:36;;;;;;;7.32;6.13;;;;;;;12.31;100.00;93651.16;2089709;28;20021;-81
2022/05/20 04:05:37;;;;;;;6.85;6.10;;;;;;;12.32;100.00;93646.56;2099094;28;20052;-82
2022/05/20 04:06:38;;;;;;;6.40;5.80;;;;;;;12.36;100.00;93649.94;2106678;28;20476;-83
2022/05/20 04:07:39;;;;;;;7.07;6.00;;;;;;;12.40;100.00;93647.94;2098253;28;20091;-82
2022/05/20 04:08:41;;;;;;;11.35;7.03;;;;;;;12.33;100.00;93648.81;2098241;28;20024;-82
2022/05/20 04:09:42;;;;;;;8.20;6.25;;;;;;;12.34;100.00;93646.91;2104683;28;20031;-82
2022/05/20 04:10:43;;;;;;;9.13;6.10;;;;;;;12.34;100.00;93652.28;2106474;28;20084;-83
2022/05/20 04:11:45;;;;;;;8.85;6.65;;;;;;;12.52;100.00;93649.25;2114939;28;20023;-82
2022/05/20 04:12:46;;;;;;;10.73;6.30;;;;;;;12.50;100.00;93644.28;2106115;28;20568;-82
2022/05/20 04:13:47;;;;;;;8.23;6.40;;;;;;;12.37;100.00;93648.00;2106357;28;20039;-82
2022/05/20 04:14:49;;;;;;;7.13;5.85;;;;;;;12.52;100.00;93647.31;2097901;28;20476;-82
2022/05/20 04:15:51;;;;;;;6.82;6.10;;;;;;;12.46;100.00;93646.28;2089784;28;20094;-83
2022/05/20 04:16:57;;;;;;;8.25;6.70;;;;;;;12.51;100.00;93647.72;2098352;28;20143;-82
2022/05/20 04:17:58;;;;;;;6.40;5.80;;;;;;;12.46;100.00;93657.00;2090332;28;20083;-82
2022/05/20 04:18:59;;;;;;;8.50;6.18;;;;;;;12.49;100.00;93650.06;2089925;28;20024;-83
2022/05/20 04:20:01;;;;;;;9.55;6.90;;;;;;;12.49;100.00;93653.50;2106296;28;20047;-82
2022/05/20 04:21:04;;;;;;;9.73;6.60;;;;;;;12.53;100.00;93656.09;2098000;28;20082;-82
2022/05/20 04:22:08;;;;;;;10.90;6.47;;;;;;;12.55;100.00;93653.75;2090082;28;20051;-83
2022/05/20 04:23:11;;;;;;;8.82;6.35;;;;;;;12.50;100.00;93648.88;2090190;28;20017;-83
2022/05/20 04:24:13;;;;;;;9.48;6.40;;;;;;;12.47;100.00;93645.13;2090325;28;20037;-82
2022/05/20 04:25:15;;;;;;;10.05;6.50;;;;;;;12.50;100.00;93649.63;2097948;28;20034;-83
2022/05/20 04:26:17;;;;;;;11.68;6.72;;;;;;;12.53;100.00;93648.06;2081617;28;20025;-82
2022/05/20 04:27:19;;;;;;;11.30;6.78;;;;;;;12.55;100.00;93649.16;2102518;28;20024;-83
2022/05/20 04:28:21;;;;;;;8.20;6.47;;;;;;;12.57;100.00;93654.88;2106451;28;20024;-83
2022/05/20 04:29:23;;;;;;;6.78;6.07;;;;;;;12.60;100.00;93653.28;2089894;28;20805;-82
2022/05/20 04:30:25;;;;;;;8.88;6.88;;;;;;;12.64;100.00;93647.84;2089871;28;20087;-82
2022/05/20 04:31:26;;;;;;;7.28;6.57;;;;;;;12.67;100.00;93645.06;2090006;28;20021;-82
2022/05/20 04:32:28;;;;;;;10.95;7.25;;;;;;;12.68;100.00;93651.19;2089633;28;20029;-82
2022/05/20 04:33:29;;;;;;;9.43;6.63;;;;;;;12.75;100.00;93637.66;2090032;28;20035;-83
2022/05/20 04:34:31;;;;;;;7.95;7.00;;;;;;;12.76;100.00;93656.00;2089724;28;20021;-82
2022/05/20 04:35:33;;;;;;;8.73;6.85;;;;;;;12.81;100.00;93649.38;2081505;28;20494;-82
2022/05/20 04:36:35;;;;;;;11.38;6.43;;;;;;;12.82;100.00;93642.88;2081161;28;20021;-82
2022/05/20 04:37:36;;;;;;;10.02;6.13;;;;;;;12.84;100.00;93645.88;2098204;28;20052;-82
2022/05/20 04:38:36;;;;;;;10.88;6.45;;;;;;;12.86;100.00;93643.53;2106279;28;20027;-82
2022/05/20 04:39:37;;;;;;;12.10;6.65;;;;;;;12.88;100.00;93641.19;2103615;28;20043;-82
2022/05/20 04:40:39;;;;;;;7.93;6.65;;;;;;;12.91;100.00;93650.34;2106194;28;20114;-83
2022/05/20 04:47:00;;;;;;;;;;;;;;;13.06;100.00;93646.16;2114498;28;20031;-82
2022/05/20 04:48:01;;;;;;;7.07;5.55;;;;;;;13.01;100.00;93643.97;2106286;28;19915;-82
2022/05/20 04:49:05;;;;;;;9.57;5.75;;;;;;;12.99;100.00;93643.63;2097890;28;20021;-82
2022/05/20 04:50:07;;;;;;;8.10;6.18;;;;;;;13.03;100.00;93642.38;2098111;28;20039;-82
2022/05/20 04:51:08;;;;;;;7.30;6.30;;;;;;;13.09;100.00;93645.31;2089509;28;20450;-82
2022/05/20 04:52:09;;;;;;;8.93;6.30;;;;;;;13.21;100.00;93641.97;2097673;28;20032;-82
2022/05/20 04:54:49;;;;;;;13.07;6.63;;;;;;;13.21;100.00;93646.56;2089457;28;20473;-82
2022/05/20 04:54:50;;;;;;;7.15;6.00;;;;;;;13.31;100.00;93646.38;2100668;28;20032;-82
2022/05/20 04:55:52;;;;;;;7.78;6.45;;;;;;;13.28;100.00;93647.19;2097561;28;20081;-82
2022/05/20 04:56:54;;;;;;;10.82;6.60;;;;;;;13.25;100.00;93642.66;2081560;28;20478;-82
2022/05/20 04:57:55;;;;;;;6.07;5.57;;;;;;;13.31;100.00;93648.31;2097836;28;20024;-82
2022/05/20 04:58:57;;;;;;;6.32;5.65;;;;;;;13.37;100.00;93649.31;2100978;28;20505;-83
2022/05/20 05:00:20;;;;;;;9.82;6.63;;;;;;;13.39;100.00;93649.66;2106024;28;20028;-83
2022/05/20 05:01:21;;;;;;;7.68;6.10;;;;;;;13.46;100.00;93646.78;2092303;28;20048;-83
2022/05/20 05:02:22;;;;;;;10.00;6.43;;;;;;;13.51;100.00;93642.81;2089533;28;20457;-82
2022/05/20 05:03:25;;;;;;;7.82;6.95;;;;;;;13.58;100.00;93645.34;2097565;28;20029;-85
2022/05/20 05:04:26;;;;;;;11.63;7.18;;;;;;;13.62;100.00;93650.63;2104341;28;20384;-83
2022/05/20 05:05:29;;;;;;;7.07;6.10;;;;;;;13.84;100.00;93648.91;2106439;28;20032;-82
2022/05/20 05:06:30;;;;;;;7.30;6.45;;;;;;;13.90;100.00;93651.84;2101789;28;20027;-83
2022/05/20 05:07:32;;;;;;;9.32;6.72;;;;;;;13.97;100.00;93641.66;2102002;28;20039;-83
2022/05/20 05:08:32;;;;;;;8.95;6.88;;;;;;;14.00;100.00;93640.06;2097756;28;20023;-83
2022/05/20 05:09:33;;;;;;;8.80;6.57;;;;;;;14.03;100.00;93639.22;2094822;28;20028;-83
2022/05/20 05:10:34;;;;;;;8.52;5.95;;;;;;;14.17;100.00;93644.19;2089757;28;20106;-83
2022/05/20 05:11:39;;;;;;;7.93;6.20;;;;;;;14.27;100.00;93643.19;2105952;28;20082;-83
2022/05/20 05:12:40;;;;;;;9.30;6.60;;;;;;;14.28;100.00;93642.00;2097829;28;20057;-83